Time;durP1;ratioP1;P1;durP2;ratioP2;P2;SDS_P1;SDS_P2;PMS_P1;PMS_P2;Temp;Humidity;BMP_temperature;BMP_pressure;BME280_temperature;BME280_humidity;BME280_pressure;Samples;Min_cycle;Max_cycle;Signal;HPM_P1;HPM_P2
2023/07/06 00:00:52;;;;;;;5.03;3.95;;;13.30;99.90;;;;;;5056282;28;20181;-76
2023/07/06 00:03:18;;;;;;;4.82;3.90;;;13.20;99.90;;;;;;5056353;28;20207;-76
2023/07/06 00:05:44;;;;;;;4.25;3.83;;;13.20;99.90;;;;;;5074279;28;20257;-76
2023/07/06 00:08:14;;;;;;;3.97;3.58;;;13.20;99.90;;;;;;5074949;28;20260;-76
2023/07/06 00:10:42;;;;;;;4.95;4.10;;;13.10;99.90;;;;;;5056560;28;20645;-76
2023/07/06 00:13:10;;;;;;;4.43;3.78;;;13.10;99.90;;;;;;5056304;28;20217;-76
2023/07/06 00:15:36;;;;;;;5.78;3.58;;;13.10;99.90;;;;;;5074326;28;20177;-75
2023/07/06 00:18:03;;;;;;;6.72;4.15;;;13.10;99.90;;;;;;5056146;28;20335;-76
2023/07/06 00:20:33;;;;;;;6.50;4.38;;;13.10;99.90;;;;;;5074608;28;20212;-76
2023/07/06 00:23:02;;;;;;;4.07;3.67;;;13.20;99.90;;;;;;5057471;28;20224;-76
2023/07/06 00:25:28;;;;;;;7.82;3.70;;;13.20;99.90;;;;;;5056645;28;20181;-76
2023/07/06 00:27:58;;;;;;;6.35;3.70;;;13.20;99.90;;;;;;5074260;28;20319;-76
2023/07/06 00:30:40;;;;;;;5.25;3.92;;;13.20;99.90;;;;;;5056285;28;20201;-76
2023/07/06 00:33:11;;;;;;;5.50;3.67;;;13.20;99.90;;;;;;5074182;28;20221;-76
2023/07/06 00:35:39;;;;;;;6.13;3.80;;;13.20;99.90;;;;;;5054978;28;20615;-76
2023/07/06 00:38:09;;;;;;;4.22;3.83;;;13.20;99.90;;;;;;5073964;28;20219;-76
2023/07/06 00:40:38;;;;;;;5.38;3.83;;;13.30;99.90;;;;;;5073977;28;20521;-76
2023/07/06 00:43:06;;;;;;;6.03;3.92;;;13.20;99.90;;;;;;5055843;28;20201;-76
2023/07/06 00:45:34;;;;;;;6.65;4.18;;;13.20;99.90;;;;;;5073789;28;20178;-75
2023/07/06 00:48:01;;;;;;;7.45;3.97;;;13.20;99.90;;;;;;5055676;28;20174;-75
2023/07/06 00:50:29;;;;;;;5.53;4.20;;;13.20;99.90;;;;;;5055769;28;20666;-75
2023/07/06 00:53:05;;;;;;;4.65;3.63;;;13.20;99.90;;;;;;5073628;28;20212;-76
2023/07/06 00:55:36;;;;;;;7.18;4.40;;;13.20;99.90;;;;;;5073792;28;20153;-76
2023/07/06 00:58:18;;;;;;;5.85;4.03;;;13.10;99.90;;;;;;5055373;28;20178;-76
2023/07/06 01:00:44;;;;;;;8.70;4.07;;;13.20;99.90;;;;;;5055732;28;20174;-75
2023/07/06 01:03:11;;;;;;;6.18;4.00;;;13.20;99.90;;;;;;5073458;28;20215;-76
2023/07/06 01:05:40;;;;;;;5.25;3.97;;;13.30;99.90;;;;;;5055627;28;20202;-76
2023/07/06 01:08:11;;;;;;;7.88;4.00;;;13.20;99.90;;;;;;5055539;28;20551;-76
2023/07/06 01:10:39;;;;;;;8.25;4.03;;;13.20;99.90;;;;;;5073658;28;20154;-76
2023/07/06 01:13:07;;;;;;;4.25;3.50;;;13.10;99.90;;;;;;5073289;28;20198;-75
2023/07/06 01:15:44;;;;;;;5.40;4.07;;;13.10;99.90;;;;;;5073349;28;20173;-76
2023/07/06 01:18:17;;;;;;;5.53;4.03;;;13.10;99.90;;;;;;5073425;28;20249;-76
2023/07/06 01:20:53;;;;;;;7.13;4.15;;;13.00;99.90;;;;;;5073237;28;20609;-77
2023/07/06 01:23:52;;;;;;;5.68;4.05;;;13.10;99.90;;;;;;5073291;28;20205;-76
2023/07/06 01:26:29;;;;;;;7.25;4.15;;;13.00;99.90;;;;;;5055448;28;20170;-76
2023/07/06 01:29:34;;;;;;;6.85;4.43;;;13.00;99.90;;;;;;5055126;28;20642;-75
2023/07/06 01:32:08;;;;;;;8.60;4.38;;;13.00;99.90;;;;;;5032063;28;20303;-76
2023/07/06 01:34:47;;;;;;;7.25;4.20;;;12.90;99.90;;;;;;5073473;28;20216;-76
2023/07/06 01:37:24;;;;;;;6.32;4.13;;;12.90;99.90;;;;;;5055767;28;20170;-76
2023/07/06 01:39:51;;;;;;;7.72;4.50;;;12.80;99.90;;;;;;5055648;28;20169;-76
2023/07/06 01:42:31;;;;;;;6.45;4.60;;;12.70;99.90;;;;;;5073408;28;20166;-76
2023/07/06 01:45:05;;;;;;;8.00;4.68;;;12.70;99.90;;;;;;5073183;28;20266;-76
2023/07/06 01:47:34;;;;;;;5.97;4.57;;;12.70;99.90;;;;;;5058277;28;20611;-76
2023/07/06 01:50:02;;;;;;;6.57;4.18;;;12.70;99.90;;;;;;5076534;28;20166;-76
2023/07/06 01:52:56;;;;;;;7.00;4.55;;;12.70;99.90;;;;;;5058450;28;20208;-76
2023/07/06 01:55:31;;;;;;;5.88;4.90;;;12.60;99.90;;;;;;5058519;28;20268;-76
2023/07/06 01:58:23;;;;;;;5.90;4.88;;;12.50;99.90;;;;;;5076239;28;20154;-76
2023/07/06 02:00:55;;;;;;;6.20;4.15;;;12.50;99.90;;;;;;5076817;28;20249;-76
2023/07/06 02:03:24;;;;;;;6.68;4.40;;;12.50;99.90;;;;;;5076551;28;20221;-74
2023/07/06 02:05:51;;;;;;;5.20;4.22;;;12.40;99.90;;;;;;5058335;28;20202;-74
2023/07/06 02:08:18;;;;;;;4.70;4.25;;;12.40;99.90;;;;;;5058445;28;20641;-75
2023/07/06 02:10:44;;;;;;;8.38;4.82;;;12.40;99.90;;;;;;5076485;28;20537;-74
2023/07/06 02:13:11;;;;;;;5.80;4.25;;;12.40;99.90;;;;;;5057932;28;20205;-74
2023/07/06 02:15:36;;;;;;;6.20;4.78;;;12.40;99.90;;;;;;5058126;28;20673;-74
2023/07/06 02:18:02;;;;;;;7.18;5.50;;;12.40;99.90;;;;;;5076251;28;20343;-75
2023/07/06 02:20:29;;;;;;;6.32;4.70;;;12.30;99.90;;;;;;5058453;28;20193;-75
2023/07/06 02:22:55;;;;;;;7.65;4.95;;;12.40;99.90;;;;;;5075931;28;20681;-75
2023/07/06 02:25:21;;;;;;;6.22;5.03;;;12.40;99.90;;;;;;5058075;28;20189;-74
2023/07/06 02:27:47;;;;;;;8.75;4.90;;;12.40;99.90;;;;;;5057780;28;20181;-74
2023/07/06 02:30:13;;;;;;;4.72;4.28;;;12.30;99.90;;;;;;5057821;28;20646;-75
2023/07/06 02:32:41;;;;;;;5.28;4.47;;;12.40;99.90;;;;;;5057895;28;20223;-75
2023/07/06 02:35:10;;;;;;;6.32;4.78;;;12.30;99.90;;;;;;5058231;28;20201;-75
2023/07/06 02:37:38;;;;;;;7.55;4.22;;;12.40;99.90;;;;;;5076669;28;20177;-75
2023/07/06 02:40:10;;;;;;;7.53;4.53;;;12.40;99.90;;;;;;5058842;28;20205;-75
2023/07/06 02:42:37;;;;;;;8.23;4.97;;;12.40;99.90;;;;;;5076510;28;20193;-76
2023/07/06 02:45:05;;;;;;;5.63;4.13;;;12.30;99.90;;;;;;5057920;28;20613;-75
2023/07/06 02:47:31;;;;;;;7.32;4.68;;;12.20;99.90;;;;;;5076054;28;20173;-76
2023/07/06 02:49:57;;;;;;;6.68;4.53;;;12.20;99.90;;;;;;5057753;28;20643;-75
2023/07/06 02:52:23;;;;;;;4.97;4.25;;;12.30;99.90;;;;;;5075635;28;20230;-75
2023/07/06 02:54:49;;;;;;;8.57;4.30;;;12.30;99.90;;;;;;5075785;28;20204;-75
2023/07/06 02:57:15;;;;;;;6.80;4.40;;;12.30;99.90;;;;;;5057341;28;20182;-75
2023/07/06 02:59:40;;;;;;;8.82;4.57;;;12.30;99.90;;;;;;5056742;28;20185;-75
2023/07/06 03:02:07;;;;;;;6.07;4.55;;;12.40;99.90;;;;;;5057638;28;20188;-75
2023/07/06 03:04:33;;;;;;;7.28;4.72;;;12.40;99.90;;;;;;5057224;28;20734;-75
2023/07/06 03:06:58;;;;;;;9.70;4.55;;;12.40;99.90;;;;;;5075433;28;20186;-74
2023/07/06 03:09:24;;;;;;;8.52;4.60;;;12.40;99.90;;;;;;5057345;28;20211;-75
2023/07/06 03:11:52;;;;;;;6.90;4.35;;;12.20;99.90;;;;;;5074994;28;20262;-75
2023/07/06 03:14:21;;;;;;;6.47;4.90;;;12.20;99.90;;;;;;5074635;28;20216;-75
2023/07/06 03:16:48;;;;;;;8.80;4.00;;;12.10;99.90;;;;;;5056904;28;20177;-75
2023/07/06 03:19:14;;;;;;;11.30;4.78;;;12.10;99.90;;;;;;5075065;28;20181;-75
2023/07/06 03:21:39;;;;;;;6.85;4.22;;;12.10;99.90;;;;;;5075097;28;20181;-75
2023/07/06 03:24:07;;;;;;;7.68;4.68;;;12.10;99.90;;;;;;5076585;28;20194;-74
2023/07/06 03:26:36;;;;;;;7.38;4.70;;;12.00;99.90;;;;;;5075314;28;20234;-74
2023/07/06 03:29:04;;;;;;;7.47;4.88;;;11.90;99.90;;;;;;5074805;28;20642;-74
2023/07/06 03:31:32;;;;;;;6.45;4.78;;;11.80;99.90;;;;;;5075768;28;20225;-74
2023/07/06 03:33:59;;;;;;;8.80;4.88;;;11.80;99.90;;;;;;5075333;28;20186;-74
2023/07/06 03:36:24;;;;;;;7.28;5.28;;;11.80;99.90;;;;;;5057463;28;20170;-74
2023/07/06 03:38:50;;;;;;;7.03;4.70;;;11.80;99.90;;;;;;5075384;28;20529;-74
2023/07/06 03:41:17;;;;;;;8.82;4.97;;;11.70;99.90;;;;;;5074887;28;20253;-75
2023/07/06 03:43:44;;;;;;;5.68;4.78;;;11.70;99.90;;;;;;5057010;28;20230;-74
2023/07/06 03:46:10;;;;;;;7.50;4.60;;;11.90;99.90;;;;;;5057713;28;20684;-74
2023/07/06 03:48:36;;;;;;;8.65;4.60;;;11.80;99.90;;;;;;5057400;28;20170;-74
2023/07/06 03:51:06;;;;;;;9.55;4.90;;;11.80;99.90;;;;;;5075339;28;20209;-74
2023/07/06 03:53:32;;;;;;;8.15;4.57;;;11.80;99.90;;;;;;5057496;28;20197;-74
2023/07/06 03:55:58;;;;;;;7.55;5.47;;;11.70;99.90;;;;;;5057482;28;20174;-74
2023/07/06 03:58:24;;;;;;;6.88;5.32;;;11.80;99.90;;;;;;5075339;28;20216;-74
2023/07/06 04:00:50;;;;;;;7.07;5.43;;;11.90;99.90;;;;;;5057455;28;20521;-74
2023/07/06 04:03:15;;;;;;;7.78;5.05;;;12.00;99.90;;;;;;5075418;28;20286;-74
2023/07/06 04:05:47;;;;;;;8.00;5.30;;;12.00;99.90;;;;;;5075944;28;20529;-74
2023/07/06 04:08:17;;;;;;;7.50;5.00;;;11.90;99.90;;;;;;5075175;28;20154;-74
2023/07/06 04:10:44;;;;;;;7.05;5.32;;;11.90;99.90;;;;;;5074603;28;20162;-75
2023/07/06 04:13:10;;;;;;;7.95;5.63;;;11.90;99.90;;;;;;5074885;28;20271;-74
2023/07/06 04:15:39;;;;;;;7.70;5.80;;;12.00;99.90;;;;;;5076221;28;20182;-74
2023/07/06 04:18:05;;;;;;;9.88;5.57;;;12.00;99.90;;;;;;5076583;28;20541;-74
2023/07/06 04:20:34;;;;;;;8.15;5.47;;;12.00;99.90;;;;;;5076476;28;20188;-74
2023/07/06 04:23:00;;;;;;;10.23;6.20;;;11.90;99.90;;;;;;5057783;28;20209;-74
2023/07/06 04:25:31;;;;;;;13.95;6.85;;;12.00;99.90;;;;;;5075455;28;20641;-74
2023/07/06 04:28:02;;;;;;;12.98;6.30;;;12.00;99.90;;;;;;5057088;28;20169;-72
2023/07/06 04:30:32;;;;;;;9.45;5.68;;;12.10;99.90;;;;;;5074432;28;20645;-72
2023/07/06 04:32:58;;;;;;;9.80;6.03;;;12.10;99.90;;;;;;5057685;28;20213;-72
2023/07/06 04:35:24;;;;;;;8.60;6.03;;;12.10;99.90;;;;;;5076333;28;20167;-72
2023/07/06 04:37:51;;;;;;;10.23;5.45;;;12.20;99.90;;;;;;5076557;28;20227;-72
2023/07/06 04:40:18;;;;;;;6.22;4.97;;;12.40;99.90;;;;;;5058728;28;20182;-72
2023/07/06 04:42:50;;;;;;;8.18;6.03;;;12.40;99.90;;;;;;5056816;28;20212;-72
2023/07/06 04:45:17;;;;;;;9.25;5.95;;;12.60;99.90;;;;;;5075464;28;20195;-72
2023/07/06 04:47:44;;;;;;;8.30;6.05;;;12.70;99.90;;;;;;5058015;28;20178;-72
2023/07/06 04:50:22;;;;;;;12.40;5.70;;;12.70;99.90;;;;;;5057524;28;20630;-73
2023/07/06 04:52:55;;;;;;;13.73;7.00;;;12.70;99.90;;;;;;5055709;28;20209;-72
2023/07/06 04:55:24;;;;;;;13.40;7.07;;;12.80;99.90;;;;;;5059219;28;20202;-72
2023/07/06 04:57:54;;;;;;;13.77;7.20;;;12.80;99.90;;;;;;5073955;28;20189;-74
2023/07/06 05:00:28;;;;;;;13.18;6.78;;;12.80;99.90;;;;;;5073151;28;20157;-74
2023/07/06 05:02:58;;;;;;;13.77;7.18;;;12.90;99.90;;;;;;5055228;28;20208;-74
2023/07/06 05:05:25;;;;;;;8.95;5.75;;;12.90;99.90;;;;;;5073165;28;20176;-74
2023/07/06 05:07:51;;;;;;;10.43;5.60;;;13.00;99.90;;;;;;5074057;28;20174;-74
2023/07/06 05:10:17;;;;;;;11.82;5.75;;;13.00;99.90;;;;;;5073827;28;20177;-74
2023/07/06 05:12:44;;;;;;;8.05;5.60;;;13.10;99.90;;;;;;5072981;28;20576;-74
2023/07/06 05:15:11;;;;;;;10.75;4.90;;;13.20;99.90;;;;;;5054908;28;20629;-76
2023/07/06 05:17:39;;;;;;;9.50;4.90;;;13.30;99.90;;;;;;5073514;28;20173;-77
2023/07/06 05:20:06;;;;;;;8.20;5.38;;;13.30;99.90;;;;;;5072925;28;20189;-77
2023/07/06 05:22:38;;;;;;;6.57;4.60;;;13.40;99.90;;;;;;5076085;28;20178;-76
2023/07/06 05:25:04;;;;;;;12.43;4.68;;;13.50;99.90;;;;;;5059059;28;20181;-77
2023/07/06 05:27:31;;;;;;;8.45;4.53;;;13.50;99.90;;;;;;5059030;28;20227;-76
2023/07/06 05:29:57;;;;;;;7.88;4.40;;;13.60;99.90;;;;;;5076660;28;20170;-76
2023/07/06 05:32:23;;;;;;;6.30;4.13;;;13.70;99.90;;;;;;5058585;28;20202;-76
2023/07/06 05:34:48;;;;;;;10.32;4.78;;;13.80;99.90;;;;;;5058984;28;20521;-76
2023/07/06 05:37:14;;;;;;;9.18;4.22;;;13.90;99.90;;;;;;5059329;28;20245;-77
2023/07/06 05:39:40;;;;;;;12.18;4.30;;;14.00;99.90;;;;;;5077219;28;20174;-78
2023/07/06 05:42:06;;;;;;;7.65;4.00;;;14.00;99.90;;;;;;5076834;28;20159;-78
2023/07/06 05:44:32;;;;;;;6.93;4.45;;;14.10;99.90;;;;;;5058797;28;20284;-77
2023/07/06 05:46:57;;;;;;;8.93;4.75;;;14.10;99.90;;;;;;5077053;28;20201;-78
2023/07/06 05:49:23;;;;;;;6.78;4.40;;;14.20;99.90;;;;;;5077310;28;20526;-78
2023/07/06 05:51:49;;;;;;;6.50;4.05;;;14.30;99.90;;;;;;5077094;28;20194;-78
2023/07/06 05:54:15;;;;;;;8.80;4.07;;;14.30;99.90;;;;;;5058452;28;20208;-78
2023/07/06 05:56:41;;;;;;;7.28;4.22;;;14.40;99.90;;;;;;5076816;28;20162;-78
2023/07/06 05:59:08;;;;;;;8.93;4.13;;;14.40;99.90;;;;;;5076439;28;20177;-77
2023/07/06 06:01:34;;;;;;;6.28;4.00;;;14.50;99.90;;;;;;5076425;28;20174;-78
2023/07/06 06:04:01;;;;;;;6.60;4.32;;;14.50;99.90;;;;;;5076316;28;20251;-78
2023/07/06 06:06:27;;;;;;;5.15;4.03;;;14.60;99.90;;;;;;5076336;28;20174;-78
2023/07/06 06:08:54;;;;;;;8.70;4.07;;;14.60;99.90;;;;;;5076930;28;20173;-78
2023/07/06 06:11:21;;;;;;;7.68;4.03;;;14.70;99.90;;;;;;5058596;28;20787;-78
2023/07/06 06:13:47;;;;;;;8.07;4.03;;;14.80;99.90;;;;;;5058357;28;20684;-77
2023/07/06 06:16:13;;;;;;;8.27;4.50;;;14.90;99.90;;;;;;5058311;28;20177;-78
2023/07/06 06:18:39;;;;;;;8.50;3.70;;;14.90;99.90;;;;;;5076665;28;20608;-77
2023/07/06 06:21:10;;;;;;;9.68;3.78;;;15.00;99.90;;;;;;5058069;28;20194;-78
2023/07/06 06:23:36;;;;;;;9.18;3.85;;;15.10;99.90;;;;;;5076213;28;20194;-78
2023/07/06 06:26:02;;;;;;;6.80;4.18;;;15.20;99.90;;;;;;5076416;28;20170;-78
2023/07/06 06:28:29;;;;;;;10.20;3.95;;;15.20;99.90;;;;;;5075792;28;20161;-76
2023/07/06 06:30:55;;;;;;;9.43;4.18;;;15.20;99.90;;;;;;5058024;28;20231;-78
2023/07/06 06:33:21;;;;;;;10.02;3.95;;;15.30;99.90;;;;;;5074631;28;20669;-79
2023/07/06 06:35:47;;;;;;;7.03;3.78;;;15.40;99.90;;;;;;5057906;28;20170;-78
2023/07/06 06:38:14;;;;;;;8.48;4.57;;;15.40;99.90;;;;;;5058004;28;20185;-78
2023/07/06 06:40:40;;;;;;;12.40;4.10;;;15.50;99.90;;;;;;5076297;28;20177;-78
2023/07/06 06:43:06;;;;;;;5.85;3.47;;;15.50;99.90;;;;;;5076083;28;20259;-78
2023/07/06 06:45:32;;;;;;;8.63;4.07;;;15.60;99.90;;;;;;5075535;28;20654;-77
2023/07/06 06:47:58;;;;;;;9.18;3.92;;;15.60;99.90;;;;;;5075992;28;20177;-79
2023/07/06 06:50:25;;;;;;;5.82;4.00;;;15.70;99.90;;;;;;5075764;28;20174;-78
2023/07/06 06:52:51;;;;;;;7.22;3.95;;;15.70;99.90;;;;;;5075823;28;20212;-78
2023/07/06 06:55:18;;;;;;;7.07;3.55;;;15.80;99.90;;;;;;5057434;28;20204;-77
2023/07/06 06:57:50;;;;;;;12.15;4.03;;;15.90;99.90;;;;;;5058124;28;20209;-77
2023/07/06 07:00:16;;;;;;;11.25;3.53;;;16.00;99.90;;;;;;5057606;28;20218;-77
2023/07/06 07:02:44;;;;;;;6.25;3.22;;;16.00;99.90;;;;;;5057271;28;20208;-77
2023/07/06 07:05:12;;;;;;;5.68;3.55;;;16.00;99.90;;;;;;5041478;28;20538;-77
2023/07/06 07:07:39;;;;;;;5.55;3.65;;;16.10;99.90;;;;;;5057131;28;20173;-77
2023/07/06 07:10:11;;;;;;;7.50;3.83;;;16.20;99.90;;;;;;5041115;28;20201;-77
2023/07/06 07:12:44;;;;;;;8.18;3.85;;;16.20;99.90;;;;;;5057262;28;20294;-77
2023/07/06 07:15:15;;;;;;;6.28;3.13;;;16.30;99.90;;;;;;5057171;28;20224;-78
2023/07/06 07:17:51;;;;;;;5.88;3.63;;;16.40;99.90;;;;;;5076111;28;20162;-77
2023/07/06 07:20:20;;;;;;;8.45;3.42;;;16.50;99.90;;;;;;5074967;28;20677;-77
2023/07/06 07:22:46;;;;;;;9.45;3.38;;;16.40;99.90;;;;;;5074913;28;20200;-77
2023/07/06 07:25:12;;;;;;;8.68;3.50;;;16.40;99.90;;;;;;5057329;28;20653;-78
2023/07/06 07:27:42;;;;;;;7.22;3.35;;;16.50;99.90;;;;;;5056865;28;20193;-78
2023/07/06 07:30:11;;;;;;;6.13;3.85;;;16.50;99.90;;;;;;5074807;28;20646;-77
2023/07/06 07:32:43;;;;;;;5.60;3.20;;;16.60;99.90;;;;;;5057034;28;20246;-78
2023/07/06 07:35:11;;;;;;;6.22;3.03;;;16.60;99.90;;;;;;5041216;28;20162;-78
2023/07/06 07:37:55;;;;;;;7.50;3.30;;;16.70;99.90;;;;;;5074945;28;20170;-78
2023/07/06 07:40:22;;;;;;;7.25;3.08;;;16.90;99.90;;;;;;5075128;28;20158;-78
2023/07/06 07:42:54;;;;;;;8.25;3.08;;;17.00;99.90;;;;;;5057031;28;20197;-77
2023/07/06 07:45:25;;;;;;;6.65;3.47;;;17.00;45.10;;;;;;5073415;28;20232;-79
2023/07/06 07:47:51;;;;;;;5.35;2.97;;;17.00;15.60;;;;;;5024452;28;20181;-78
2023/07/06 07:50:25;;;;;;;5.22;2.85;;;17.10;1.00;;;;;;5055782;28;20186;-77
2023/07/06 07:52:52;;;;;;;4.40;2.80;;;17.10;1.00;;;;;;5056772;28;20353;-78
2023/07/06 07:55:21;;;;;;;7.28;3.33;;;17.20;63.40;;;;;;5056566;28;20616;-78
2023/07/06 07:57:48;;;;;;;5.95;2.85;;;17.20;1.00;;;;;;5057053;28;20208;-77
2023/07/06 08:00:14;;;;;;;5.80;3.13;;;17.30;1.00;;;;;;5056900;28;20223;-77
2023/07/06 08:02:45;;;;;;;3.35;2.63;;;17.40;1.00;;;;;;5056593;28;20201;-77
2023/07/06 08:05:13;;;;;;;6.38;2.88;;;17.50;1.00;;;;;;5057845;28;20208;-77
2023/07/06 08:07:45;;;;;;;4.50;3.00;;;17.50;1.00;;;;;;5059667;28;20620;-78
2023/07/06 08:10:15;;;;;;;6.22;2.85;;;17.60;1.00;;;;;;5067534;28;20192;-78
2023/07/06 08:12:46;;;;;;;3.55;2.80;;;17.70;1.00;;;;;;5058392;28;20213;-77
2023/07/06 08:15:22;;;;;;;7.82;2.90;;;17.80;1.00;;;;;;5057248;28;20217;-77
2023/07/06 08:17:48;;;;;;;5.32;2.40;;;17.80;1.00;;;;;;5041866;28;20181;-78
2023/07/06 08:20:17;;;;;;;5.88;2.90;;;17.90;1.00;;;;;;5056289;28;20194;-78
2023/07/06 08:22:47;;;;;;;4.68;2.50;;;18.00;1.00;;;;;;5074418;28;20240;-78
2023/07/06 08:25:13;;;;;;;5.35;2.70;;;18.10;1.00;;;;;;5055456;28;20178;-77
2023/07/06 08:27:42;;;;;;;4.78;2.53;;;18.30;1.00;;;;;;5074459;28;20592;-77
2023/07/06 08:30:09;;;;;;;3.75;2.65;;;18.30;1.00;;;;;;5055953;28;20186;-78
2023/07/06 08:32:37;;;;;;;3.97;2.42;;;18.40;9.40;;;;;;5055574;28;20692;-77
2023/07/06 08:35:04;;;;;;;5.32;2.58;;;18.40;1.00;;;;;;5069970;28;20651;-77
2023/07/06 08:37:30;;;;;;;3.20;2.60;;;18.50;99.90;;;;;;5036496;28;20214;-77
2023/07/06 08:39:57;;;;;;;5.50;2.85;;;18.50;99.90;;;;;;5054517;28;20170;-77
2023/07/06 08:42:26;;;;;;;6.15;2.78;;;18.50;99.90;;;;;;5036598;28;20179;-77
2023/07/06 08:44:59;;;;;;;5.43;2.80;;;18.70;1.00;;;;;;5054773;28;20178;-77
2023/07/06 08:47:26;;;;;;;6.50;2.58;;;18.70;1.00;;;;;;5037237;28;20643;-77
2023/07/06 08:49:54;;;;;;;4.93;2.38;;;18.80;1.00;;;;;;5036677;28;20661;-78
2023/07/06 08:52:24;;;;;;;3.53;2.42;;;18.80;99.90;;;;;;5036089;28;20569;-77
2023/07/06 08:54:54;;;;;;;5.55;2.47;;;19.00;99.90;;;;;;5036107;28;20526;-78
2023/07/06 08:57:26;;;;;;;5.07;2.50;;;19.00;92.80;;;;;;5039349;28;20167;-78
2023/07/06 08:59:54;;;;;;;3.78;2.50;;;19.00;1.00;;;;;;5040122;28;20175;-78
2023/07/06 09:02:28;;;;;;;10.02;2.88;;;19.10;99.90;;;;;;5023395;28;20201;-77
2023/07/06 09:05:17;;;;;;;6.60;2.85;;;19.20;1.00;;;;;;5041898;28;20182;-77
2023/07/06 09:07:47;;;;;;;6.65;2.75;;;19.20;99.90;;;;;;5044998;28;20188;-78
2023/07/06 09:10:23;;;;;;;9.48;3.72;;;19.40;99.90;;;;;;5059918;28;20184;-77
2023/07/06 09:13:13;;;;;;;4.90;2.58;;;19.50;99.90;;;;;;5060021;28;20225;-77
2023/07/06 09:15:56;;;;;;;4.97;2.70;;;19.60;99.90;;;;;;5077619;28;20525;-78
2023/07/06 09:18:25;;;;;;;4.90;2.47;;;19.70;1.00;;;;;;5059737;28;20183;-77
2023/07/06 09:20:58;;;;;;;5.88;2.70;;;19.90;99.90;;;;;;5059470;28;20562;-78
2023/07/06 09:23:24;;;;;;;4.45;2.45;;;19.90;99.90;;;;;;5059194;28;20691;-77
2023/07/06 09:25:54;;;;;;;5.00;2.72;;;20.10;99.90;;;;;;5076791;28;20190;-78
2023/07/06 09:28:32;;;;;;;3.75;2.60;;;20.20;1.00;;;;;;5059513;28;20592;-78
2023/07/06 09:31:21;;;;;;;5.75;2.63;;;20.30;99.90;;;;;;5059290;28;20226;-77
2023/07/06 09:33:53;;;;;;;5.80;2.40;;;20.30;99.90;;;;;;5043179;28;20674;-78
2023/07/06 09:36:25;;;;;;;3.90;2.30;;;20.30;1.00;;;;;;5059566;28;20653;-79
2023/07/06 09:38:51;;;;;;;4.63;2.42;;;20.50;99.90;;;;;;5060663;28;20260;-77
2023/07/06 09:41:25;;;;;;;6.40;3.20;;;20.60;1.00;;;;;;5077192;28;20528;-77
2023/07/06 09:43:57;;;;;;;6.30;2.40;;;20.50;99.90;;;;;;5059019;28;20201;-76
2023/07/06 09:46:27;;;;;;;4.82;2.53;;;20.50;1.00;;;;;;5076601;28;20155;-77
2023/07/06 09:48:53;;;;;;;5.03;2.95;;;20.70;1.00;;;;;;5059308;28;20174;-77
2023/07/06 09:51:33;;;;;;;5.55;2.97;;;20.90;99.90;;;;;;5077199;28;20684;-77
2023/07/06 09:54:05;;;;;;;5.65;2.50;;;21.10;1.00;;;;;;5077447;28;20239;-78
2023/07/06 09:56:31;;;;;;;3.97;2.47;;;21.20;74.70;;;;;;5059277;28;20166;-78
2023/07/06 09:58:58;;;;;;;6.20;2.50;;;21.10;99.90;;;;;;5058795;28;20591;-77
2023/07/06 10:01:46;;;;;;;6.88;2.28;;;21.10;1.00;;;;;;5076396;28;20177;-77
2023/07/06 10:04:18;;;;;;;4.25;2.15;;;20.90;99.90;;;;;;5058876;28;20232;-78
2023/07/06 10:07:00;;;;;;;3.88;2.40;;;20.60;99.90;;;;;;5076574;28;20212;-78
2023/07/06 10:09:31;;;;;;;6.65;2.70;;;20.50;99.90;;;;;;5077953;28;20154;-78
2023/07/06 10:12:05;;;;;;;6.03;3.00;;;20.80;33.70;;;;;;5058913;28;20259;-78
2023/07/06 10:14:44;;;;;;;9.68;3.00;;;20.50;99.90;;;;;;5076674;28;20738;-77
2023/07/06 10:17:43;;;;;;;7.43;2.60;;;20.30;1.00;;;;;;5058626;28;20174;-75
2023/07/06 10:20:17;;;;;;;6.25;2.92;;;20.50;99.90;;;;;;5072465;28;20222;-76
2023/07/06 10:23:11;;;;;;;8.68;2.75;;;20.80;1.00;;;;;;5058498;28;20207;-74
2023/07/06 10:25:46;;;;;;;3.08;2.33;;;21.00;1.00;;;;;;5058209;28;20170;-74
2023/07/06 10:28:55;;;;;;;5.45;2.40;;;21.20;99.90;;;;;;5076219;28;20237;-74
2023/07/06 10:31:27;;;;;;;5.20;2.55;;;21.40;99.90;;;;;;5065002;28;20674;-76
2023/07/06 10:34:17;;;;;;;3.92;2.33;;;21.60;1.00;;;;;;5057946;28;20700;-75
2023/07/06 10:36:46;;;;;;;7.05;2.30;;;21.90;1.00;;;;;;5064446;28;20234;-74
2023/07/06 10:39:32;;;;;;;3.22;2.30;;;22.00;99.90;;;;;;5058193;28;20218;-77
2023/07/06 10:42:10;;;;;;;3.85;2.20;;;21.90;99.90;;;;;;5037719;28;20237;-75
2023/07/06 10:44:40;;;;;;;5.50;2.30;;;22.00;1.00;;;;;;5077466;28;20726;-77
2023/07/06 10:47:07;;;;;;;5.85;2.85;;;22.00;99.90;;;;;;5058002;28;20235;-76
2023/07/06 10:50:05;;;;;;;8.23;4.70;;;21.80;1.00;;;;;;5057825;28;20251;-76
2023/07/06 10:52:32;;;;;;;5.07;2.67;;;22.00;99.90;;;;;;5075878;28;20189;-76
2023/07/06 10:54:58;;;;;;;4.07;2.20;;;22.20;1.00;;;;;;5057796;28;20174;-76
2023/07/06 10:57:34;;;;;;;5.40;2.83;;;22.20;99.90;;;;;;5057760;28;20172;-76
2023/07/06 11:00:15;;;;;;;8.75;3.08;;;22.30;99.90;;;;;;5057674;28;20206;-77
2023/07/06 11:02:44;;;;;;;7.68;2.83;;;22.30;1.00;;;;;;5075785;28;20255;-77
2023/07/06 11:05:30;;;;;;;3.85;2.30;;;22.30;1.00;;;;;;5057479;28;20544;-77
2023/07/06 11:07:59;;;;;;;6.90;2.22;;;22.10;99.90;;;;;;5057018;28;20564;-77
2023/07/06 11:10:29;;;;;;;5.88;2.10;;;22.10;1.00;;;;;;5075507;28;20174;-77
2023/07/06 11:12:57;;;;;;;19.52;13.52;;;22.00;99.90;;;;;;5075158;28;20201;-77
2023/07/06 11:15:36;;;;;;;7.15;2.67;;;21.70;99.90;;;;;;5074733;28;20169;-77
2023/07/06 11:18:16;;;;;;;7.60;2.50;;;21.70;37.40;;;;;;5057174;28;20183;-76
2023/07/06 11:20:50;;;;;;;4.45;2.20;;;21.90;99.90;;;;;;5075156;28;20182;-77
2023/07/06 11:23:19;;;;;;;3.08;1.70;;;21.70;1.00;;;;;;5057412;28;20264;-76
2023/07/06 11:25:51;;;;;;;3.53;2.05;;;22.00;1.00;;;;;;5056853;28;20191;-77
2023/07/06 11:28:22;;;;;;;3.80;2.35;;;22.30;99.90;;;;;;5074818;28;20172;-77
2023/07/06 11:30:51;;;;;;;3.90;2.00;;;22.40;1.00;;;;;;5057392;28;20183;-77
2023/07/06 11:33:17;;;;;;;2.80;2.13;;;22.50;99.90;;;;;;5056783;28;20214;-76
2023/07/06 11:35:55;;;;;;;4.15;2.20;;;22.40;99.90;;;;;;5056898;28;20722;-77
2023/07/06 11:38:32;;;;;;;3.97;2.13;;;22.50;1.00;;;;;;5056796;28;20165;-77
2023/07/06 11:41:03;;;;;;;5.93;2.50;;;22.50;1.00;;;;;;5057031;28;20172;-76
2023/07/06 11:43:52;;;;;;;3.47;2.15;;;22.40;99.90;;;;;;5057103;28;20206;-77
2023/07/06 11:46:26;;;;;;;6.30;2.30;;;22.30;99.90;;;;;;5074547;28;20179;-76
2023/07/06 11:49:32;;;;;;;4.30;2.00;;;21.90;99.90;;;;;;5075038;28;20161;-77
2023/07/06 11:51:58;;;;;;;7.32;2.08;;;21.80;99.90;;;;;;5057019;28;20677;-77
2023/07/06 11:54:49;;;;;;;3.67;1.92;;;21.80;99.90;;;;;;5075359;28;20193;-77
2023/07/06 11:57:31;;;;;;;3.50;2.10;;;21.40;99.90;;;;;;5075442;28;20165;-76
2023/07/06 12:03:07;;;;;;;5.05;2.20;;;21.10;1.00;;;;;;5079934;28;20316;-78
2023/07/06 12:05:33;;;;;;;4.28;1.90;;;21.20;99.90;;;;;;5083178;28;20189;-78
2023/07/06 12:08:03;;;;;;;7.25;1.80;;;21.60;99.90;;;;;;5063318;28;20704;-79
2023/07/06 12:10:33;;;;;;;4.93;1.90;;;21.90;99.90;;;;;;5078856;28;20173;-78
2023/07/06 12:12:59;;;;;;;3.70;1.73;;;22.30;99.90;;;;;;5057691;28;20258;-78
2023/07/06 12:15:26;;;;;;;5.72;1.90;;;22.50;1.00;;;;;;5075112;28;20157;-78
2023/07/06 12:17:56;;;;;;;6.43;2.10;;;22.80;99.90;;;;;;5075346;28;20222;-78
2023/07/06 12:20:25;;;;;;;4.00;2.08;;;22.80;99.90;;;;;;5057653;28;20190;-78
2023/07/06 12:22:57;;;;;;;4.65;2.10;;;22.70;1.00;;;;;;5077617;28;20347;-78
2023/07/06 12:25:25;;;;;;;4.22;1.92;;;22.30;1.00;;;;;;5057328;28;20195;-76
2023/07/06 12:27:59;;;;;;;5.32;1.90;;;22.50;99.90;;;;;;5056487;28;20273;-78
2023/07/06 12:30:33;;;;;;;5.05;1.98;;;22.60;99.90;;;;;;5077252;28;20168;-77
2023/07/06 12:33:13;;;;;;;4.20;2.00;;;22.70;99.90;;;;;;5058425;28;20214;-79
2023/07/06 12:35:40;;;;;;;5.07;1.77;;;22.50;99.90;;;;;;5076353;28;20184;-78
2023/07/06 12:38:12;;;;;;;4.55;2.55;;;22.60;99.90;;;;;;5056925;28;20291;-77
2023/07/06 12:40:38;;;;;;;5.30;1.75;;;22.80;1.00;;;;;;5056205;28;20197;-78
2023/07/06 12:43:05;;;;;;;4.88;2.22;;;22.90;1.00;;;;;;5056332;28;20206;-77
2023/07/06 12:45:32;;;;;;;3.38;1.83;;;23.00;1.00;;;;;;5075376;28;20178;-78
2023/07/06 12:48:04;;;;;;;3.30;1.63;;;23.00;1.00;;;;;;5056949;28;20205;-77
2023/07/06 12:50:37;;;;;;;15.48;8.93;;;23.00;99.90;;;;;;5056015;28;20177;-78
2023/07/06 12:53:11;;;;;;;4.10;2.10;;;23.30;99.90;;;;;;5073304;28;20202;-77
2023/07/06 12:55:41;;;;;;;3.38;1.90;;;23.30;1.00;;;;;;5055493;28;20161;-76
2023/07/06 12:58:26;;;;;;;2.33;1.40;;;23.20;1.00;;;;;;5073418;28;20170;-77
2023/07/06 13:00:51;;;;;;;3.40;1.80;;;23.40;18.20;;;;;;5055066;28;20158;-73
2023/07/06 13:03:17;;;;;;;4.65;2.00;;;23.40;1.00;;;;;;5073301;28;20200;-77
2023/07/06 13:05:53;;;;;;;3.65;1.90;;;23.20;36.90;;;;;;5072973;28;20178;-75
2023/07/06 13:08:20;;;;;;;4.15;1.80;;;23.60;1.00;;;;;;5073269;28;20166;-77